sensor_id;sensor_type;location;lat;lon;timestamp;P1;durP1;ratioP1;P2;durP2;ratioP2
57319;SDS011;43158;51.026;18.190;2023-03-04T00:02:19;40.10;;;29.00;;
57319;SDS011;43158;51.026;18.190;2023-03-04T00:04:45;39.40;;;29.40;;
57319;SDS011;43158;51.026;18.190;2023-03-04T00:07:11;36.20;;;26.40;;
57319;SDS011;43158;51.026;18.190;2023-03-04T00:09:42;38.90;;;27.70;;
57319;SDS011;43158;51.026;18.190;2023-03-04T00:12:08;36.30;;;27.30;;
57319;SDS011;43158;51.026;18.190;2023-03-04T00:14:33;30.50;;;22.70;;
57319;SDS011;43158;51.026;18.190;2023-03-04T00:16:59;30.40;;;22.60;;
57319;SDS011;43158;51.026;18.190;2023-03-04T00:19:28;31.30;;;22.00;;
57319;SDS011;43158;51.026;18.190;2023-03-04T00:21:53;32.20;;;23.90;;
57319;SDS011;43158;51.026;18.190;2023-03-04T00:24:19;35.20;;;23.70;;
57319;SDS011;43158;51.026;18.190;2023-03-04T00:26:45;33.70;;;23.90;;
57319;SDS011;43158;51.026;18.190;2023-03-04T00:29:11;32.60;;;24.50;;
57319;SDS011;43158;51.026;18.190;2023-03-04T00:31:36;33.30;;;24.90;;
57319;SDS011;43158;51.026;18.190;2023-03-04T00:34:02;35.40;;;26.90;;
57319;SDS011;43158;51.026;18.190;2023-03-04T00:36:28;34.30;;;24.20;;
57319;SDS011;43158;51.026;18.190;2023-03-04T00:38:54;37.20;;;24.80;;
57319;SDS011;43158;51.026;18.190;2023-03-04T00:41:19;33.20;;;23.30;;
57319;SDS011;43158;51.026;18.190;2023-03-04T00:43:45;39.30;;;28.80;;
57319;SDS011;43158;51.026;18.190;2023-03-04T00:46:11;43.90;;;28.00;;
57319;SDS011;43158;51.026;18.190;2023-03-04T00:48:37;42.10;;;28.40;;
57319;SDS011;43158;51.026;18.190;2023-03-04T00:51:03;43.40;;;29.00;;
57319;SDS011;43158;51.026;18.190;2023-03-04T00:53:29;44.10;;;28.40;;
57319;SDS011;43158;51.026;18.190;2023-03-04T00:55:55;44.10;;;29.30;;
57319;SDS011;43158;51.026;18.190;2023-03-04T00:58:21;51.40;;;34.10;;
57319;SDS011;43158;51.026;18.190;2023-03-04T01:00:46;44.90;;;28.30;;
57319;SDS011;43158;51.026;18.190;2023-03-04T01:03:12;49.70;;;29.80;;
57319;SDS011;43158;51.026;18.190;2023-03-04T01:05:38;41.50;;;27.70;;
57319;SDS011;43158;51.026;18.190;2023-03-04T01:08:04;46.00;;;30.00;;
57319;SDS011;43158;51.026;18.190;2023-03-04T01:10:30;44.90;;;27.90;;
57319;SDS011;43158;51.026;18.190;2023-03-04T01:12:56;47.20;;;29.30;;
57319;SDS011;43158;51.026;18.190;2023-03-04T01:15:23;44.70;;;30.50;;
57319;SDS011;43158;51.026;18.190;2023-03-04T01:17:48;41.80;;;28.50;;
57319;SDS011;43158;51.026;18.190;2023-03-04T01:20:14;44.50;;;30.00;;
57319;SDS011;43158;51.026;18.190;2023-03-04T01:22:40;42.80;;;28.80;;
57319;SDS011;43158;51.026;18.190;2023-03-04T01:25:06;40.20;;;28.70;;
57319;SDS011;43158;51.026;18.190;2023-03-04T01:27:32;38.90;;;25.60;;
57319;SDS011;43158;51.026;18.190;2023-03-04T01:29:58;41.30;;;25.40;;
57319;SDS011;43158;51.026;18.190;2023-03-04T01:32:24;35.20;;;24.20;;
57319;SDS011;43158;51.026;18.190;2023-03-04T01:34:49;39.30;;;26.90;;
57319;SDS011;43158;51.026;18.190;2023-03-04T01:37:16;38.10;;;26.50;;
57319;SDS011;43158;51.026;18.190;2023-03-04T01:39:42;41.90;;;25.90;;
57319;SDS011;43158;51.026;18.190;2023-03-04T01:42:18;42.10;;;26.80;;
57319;SDS011;43158;51.026;18.190;2023-03-04T01:44:44;39.30;;;26.80;;
57319;SDS011;43158;51.026;18.190;2023-03-04T01:47:10;40.90;;;25.40;;
57319;SDS011;43158;51.026;18.190;2023-03-04T01:49:36;43.50;;;28.00;;
57319;SDS011;43158;51.026;18.190;2023-03-04T01:52:02;44.80;;;30.10;;
57319;SDS011;43158;51.026;18.190;2023-03-04T01:54:28;34.10;;;23.10;;
57319;SDS011;43158;51.026;18.190;2023-03-04T01:56:54;47.10;;;28.40;;
57319;SDS011;43158;51.026;18.190;2023-03-04T01:59:22;40.80;;;27.90;;
57319;SDS011;43158;51.026;18.190;2023-03-04T02:01:52;45.90;;;29.10;;
57319;SDS011;43158;51.026;18.190;2023-03-04T02:04:19;42.90;;;26.70;;
57319;SDS011;43158;51.026;18.190;2023-03-04T02:06:46;44.80;;;28.30;;
57319;SDS011;43158;51.026;18.190;2023-03-04T02:09:12;44.00;;;27.70;;
57319;SDS011;43158;51.026;18.190;2023-03-04T02:11:39;46.10;;;28.50;;
57319;SDS011;43158;51.026;18.190;2023-03-04T02:14:05;36.00;;;23.30;;
57319;SDS011;43158;51.026;18.190;2023-03-04T02:16:31;38.60;;;27.30;;
57319;SDS011;43158;51.026;18.190;2023-03-04T02:18:57;36.20;;;24.50;;
57319;SDS011;43158;51.026;18.190;2023-03-04T02:21:31;36.40;;;25.00;;
57319;SDS011;43158;51.026;18.190;2023-03-04T02:26:42;34.30;;;23.30;;
57319;SDS011;43158;51.026;18.190;2023-03-04T02:29:12;32.50;;;25.50;;
57319;SDS011;43158;51.026;18.190;2023-03-04T02:31:39;37.80;;;26.30;;
57319;SDS011;43158;51.026;18.190;2023-03-04T02:34:06;36.10;;;23.70;;
57319;SDS011;43158;51.026;18.190;2023-03-04T02:36:35;34.10;;;24.20;;
57319;SDS011;43158;51.026;18.190;2023-03-04T02:39:06;32.10;;;22.80;;
57319;SDS011;43158;51.026;18.190;2023-03-04T02:41:32;31.20;;;23.70;;
57319;SDS011;43158;51.026;18.190;2023-03-04T02:43:58;35.10;;;24.30;;
57319;SDS011;43158;51.026;18.190;2023-03-04T02:46:23;35.10;;;24.30;;
57319;SDS011;43158;51.026;18.190;2023-03-04T02:48:49;35.50;;;26.20;;
57319;SDS011;43158;51.026;18.190;2023-03-04T02:51:15;36.40;;;24.40;;
57319;SDS011;43158;51.026;18.190;2023-03-04T02:53:41;33.50;;;23.10;;
57319;SDS011;43158;51.026;18.190;2023-03-04T02:56:07;33.70;;;22.10;;
57319;SDS011;43158;51.026;18.190;2023-03-04T02:58:33;33.20;;;25.60;;
57319;SDS011;43158;51.026;18.190;2023-03-04T03:00:59;32.40;;;24.10;;
57319;SDS011;43158;51.026;18.190;2023-03-04T03:03:25;33.20;;;22.90;;
57319;SDS011;43158;51.026;18.190;2023-03-04T03:05:52;35.10;;;21.80;;
57319;SDS011;43158;51.026;18.190;2023-03-04T03:08:18;30.90;;;22.20;;
57319;SDS011;43158;51.026;18.190;2023-03-04T03:10:43;30.20;;;20.90;;
57319;SDS011;43158;51.026;18.190;2023-03-04T03:13:09;31.00;;;21.70;;
57319;SDS011;43158;51.026;18.190;2023-03-04T03:15:35;29.00;;;20.60;;
57319;SDS011;43158;51.026;18.190;2023-03-04T03:18:07;27.30;;;20.50;;
57319;SDS011;43158;51.026;18.190;2023-03-04T03:20:33;26.70;;;19.20;;
57319;SDS011;43158;51.026;18.190;2023-03-04T03:22:59;29.00;;;19.20;;
57319;SDS011;43158;51.026;18.190;2023-03-04T03:25:25;26.40;;;19.00;;
57319;SDS011;43158;51.026;18.190;2023-03-04T03:27:50;22.80;;;17.60;;
57319;SDS011;43158;51.026;18.190;2023-03-04T03:30:16;24.70;;;17.90;;
57319;SDS011;43158;51.026;18.190;2023-03-04T03:32:42;27.90;;;19.90;;
57319;SDS011;43158;51.026;18.190;2023-03-04T03:35:08;26.40;;;19.90;;
57319;SDS011;43158;51.026;18.190;2023-03-04T03:37:34;29.70;;;21.00;;
57319;SDS011;43158;51.026;18.190;2023-03-04T03:40:00;30.20;;;20.10;;
57319;SDS011;43158;51.026;18.190;2023-03-04T03:42:26;26.00;;;19.10;;
57319;SDS011;43158;51.026;18.190;2023-03-04T03:44:52;27.40;;;19.40;;
57319;SDS011;43158;51.026;18.190;2023-03-04T03:47:17;27.80;;;20.10;;
57319;SDS011;43158;51.026;18.190;2023-03-04T03:49:43;28.40;;;21.00;;
57319;SDS011;43158;51.026;18.190;2023-03-04T03:52:09;28.20;;;20.20;;
57319;SDS011;43158;51.026;18.190;2023-03-04T03:54:35;29.90;;;20.70;;
57319;SDS011;43158;51.026;18.190;2023-03-04T03:57:01;29.70;;;20.40;;
57319;SDS011;43158;51.026;18.190;2023-03-04T03:59:27;28.40;;;20.50;;
57319;SDS011;43158;51.026;18.190;2023-03-04T04:01:53;26.80;;;21.30;;
57319;SDS011;43158;51.026;18.190;2023-03-04T04:04:19;29.70;;;21.10;;
57319;SDS011;43158;51.026;18.190;2023-03-04T04:06:44;31.80;;;23.60;;
57319;SDS011;43158;51.026;18.190;2023-03-04T04:09:10;27.30;;;22.60;;
57319;SDS011;43158;51.026;18.190;2023-03-04T04:11:36;30.30;;;22.80;;
57319;SDS011;43158;51.026;18.190;2023-03-04T04:14:02;29.70;;;21.10;;
57319;SDS011;43158;51.026;18.190;2023-03-04T04:16:29;30.00;;;22.10;;
57319;SDS011;43158;51.026;18.190;2023-03-04T04:18:55;27.90;;;22.60;;
57319;SDS011;43158;51.026;18.190;2023-03-04T04:21:21;27.10;;;22.30;;
57319;SDS011;43158;51.026;18.190;2023-03-04T04:23:47;27.80;;;22.10;;
57319;SDS011;43158;51.026;18.190;2023-03-04T04:26:13;26.20;;;21.40;;
57319;SDS011;43158;51.026;18.190;2023-03-04T04:28:38;25.10;;;20.70;;
57319;SDS011;43158;51.026;18.190;2023-03-04T04:31:07;25.80;;;19.80;;
57319;SDS011;43158;51.026;18.190;2023-03-04T04:33:33;25.60;;;20.70;;
57319;SDS011;43158;51.026;18.190;2023-03-04T04:35:59;25.90;;;21.10;;
57319;SDS011;43158;51.026;18.190;2023-03-04T04:38:26;28.00;;;23.30;;
57319;SDS011;43158;51.026;18.190;2023-03-04T04:40:51;38.20;;;27.50;;
57319;SDS011;43158;51.026;18.190;2023-03-04T04:43:17;29.60;;;24.30;;
57319;SDS011;43158;51.026;18.190;2023-03-04T04:45:43;30.60;;;24.20;;
57319;SDS011;43158;51.026;18.190;2023-03-04T04:48:09;33.50;;;25.80;;
57319;SDS011;43158;51.026;18.190;2023-03-04T04:50:34;30.40;;;26.90;;
57319;SDS011;43158;51.026;18.190;2023-03-04T04:53:00;33.20;;;26.80;;
57319;SDS011;43158;51.026;18.190;2023-03-04T04:55:26;32.70;;;27.00;;
57319;SDS011;43158;51.026;18.190;2023-03-04T04:57:52;31.40;;;26.30;;
57319;SDS011;43158;51.026;18.190;2023-03-04T05:00:18;33.40;;;27.00;;
57319;SDS011;43158;51.026;18.190;2023-03-04T05:02:44;31.90;;;25.90;;
57319;SDS011;43158;51.026;18.190;2023-03-04T05:05:10;34.20;;;29.20;;
57319;SDS011;43158;51.026;18.190;2023-03-04T05:07:36;31.70;;;26.90;;
57319;SDS011;43158;51.026;18.190;2023-03-04T05:10:02;34.00;;;26.80;;
57319;SDS011;43158;51.026;18.190;2023-03-04T05:12:28;30.70;;;27.00;;
57319;SDS011;43158;51.026;18.190;2023-03-04T05:14:54;33.50;;;29.10;;
57319;SDS011;43158;51.026;18.190;2023-03-04T05:17:20;31.80;;;28.40;;
57319;SDS011;43158;51.026;18.190;2023-03-04T05:19:46;31.60;;;27.40;;
57319;SDS011;43158;51.026;18.190;2023-03-04T05:22:12;30.80;;;25.40;;
57319;SDS011;43158;51.026;18.190;2023-03-04T05:24:37;28.40;;;25.10;;
57319;SDS011;43158;51.026;18.190;2023-03-04T05:27:04;27.40;;;24.30;;
57319;SDS011;43158;51.026;18.190;2023-03-04T05:29:29;25.60;;;22.80;;
57319;SDS011;43158;51.026;18.190;2023-03-04T05:31:55;27.20;;;23.80;;
57319;SDS011;43158;51.026;18.190;2023-03-04T05:34:21;23.70;;;21.00;;
57319;SDS011;43158;51.026;18.190;2023-03-04T05:36:46;26.30;;;21.10;;
57319;SDS011;43158;51.026;18.190;2023-03-04T05:39:12;24.80;;;21.50;;
57319;SDS011;43158;51.026;18.190;2023-03-04T05:41:38;24.60;;;20.30;;
57319;SDS011;43158;51.026;18.190;2023-03-04T05:44:04;32.70;;;22.20;;
57319;SDS011;43158;51.026;18.190;2023-03-04T05:46:30;26.00;;;21.10;;
57319;SDS011;43158;51.026;18.190;2023-03-04T05:48:56;25.80;;;19.00;;
57319;SDS011;43158;51.026;18.190;2023-03-04T05:51:22;25.00;;;19.90;;
57319;SDS011;43158;51.026;18.190;2023-03-04T05:53:48;23.90;;;20.30;;
57319;SDS011;43158;51.026;18.190;2023-03-04T05:56:17;27.50;;;21.50;;
57319;SDS011;43158;51.026;18.190;2023-03-04T06:01:09;26.50;;;21.30;;
57319;SDS011;43158;51.026;18.190;2023-03-04T06:03:34;30.10;;;21.70;;
57319;SDS011;43158;51.026;18.190;2023-03-04T06:06:00;28.40;;;22.80;;
57319;SDS011;43158;51.026;18.190;2023-03-04T06:08:26;27.90;;;21.20;;
57319;SDS011;43158;51.026;18.190;2023-03-04T06:10:53;28.50;;;22.20;;
57319;SDS011;43158;51.026;18.190;2023-03-04T06:13:19;27.30;;;21.00;;
57319;SDS011;43158;51.026;18.190;2023-03-04T06:15:45;30.60;;;24.00;;
57319;SDS011;43158;51.026;18.190;2023-03-04T06:18:11;29.30;;;23.70;;
57319;SDS011;43158;51.026;18.190;2023-03-04T06:20:37;27.70;;;22.60;;
57319;SDS011;43158;51.026;18.190;2023-03-04T06:23:03;30.10;;;24.20;;
57319;SDS011;43158;51.026;18.190;2023-03-04T06:25:29;32.30;;;23.90;;
57319;SDS011;43158;51.026;18.190;2023-03-04T06:27:55;31.40;;;23.20;;
57319;SDS011;43158;51.026;18.190;2023-03-04T06:30:20;32.50;;;26.50;;
57319;SDS011;43158;51.026;18.190;2023-03-04T06:32:46;30.40;;;24.70;;
57319;SDS011;43158;51.026;18.190;2023-03-04T06:35:12;31.50;;;26.10;;
57319;SDS011;43158;51.026;18.190;2023-03-04T06:37:38;30.60;;;24.90;;
57319;SDS011;43158;51.026;18.190;2023-03-04T06:40:04;28.90;;;21.20;;
57319;SDS011;43158;51.026;18.190;2023-03-04T06:42:32;30.10;;;25.90;;
57319;SDS011;43158;51.026;18.190;2023-03-04T06:44:58;27.80;;;23.50;;
57319;SDS011;43158;51.026;18.190;2023-03-04T06:47:23;31.40;;;25.80;;
57319;SDS011;43158;51.026;18.190;2023-03-04T06:49:49;32.90;;;26.20;;
57319;SDS011;43158;51.026;18.190;2023-03-04T06:52:15;30.40;;;21.30;;
57319;SDS011;43158;51.026;18.190;2023-03-04T06:54:40;28.20;;;23.40;;
57319;SDS011;43158;51.026;18.190;2023-03-04T06:57:06;25.50;;;21.60;;
57319;SDS011;43158;51.026;18.190;2023-03-04T06:59:32;29.60;;;24.30;;
57319;SDS011;43158;51.026;18.190;2023-03-04T07:01:58;26.30;;;23.50;;
57319;SDS011;43158;51.026;18.190;2023-03-04T07:04:24;31.00;;;23.30;;
57319;SDS011;43158;51.026;18.190;2023-03-04T07:06:50;22.10;;;19.40;;
57319;SDS011;43158;51.026;18.190;2023-03-04T07:09:16;25.10;;;20.70;;
57319;SDS011;43158;51.026;18.190;2023-03-04T07:11:42;27.60;;;22.80;;
57319;SDS011;43158;51.026;18.190;2023-03-04T07:14:08;25.40;;;21.20;;
57319;SDS011;43158;51.026;18.190;2023-03-04T07:16:34;25.00;;;20.30;;
57319;SDS011;43158;51.026;18.190;2023-03-04T07:19:00;26.00;;;21.20;;
57319;SDS011;43158;51.026;18.190;2023-03-04T07:21:26;23.00;;;19.00;;
57319;SDS011;43158;51.026;18.190;2023-03-04T07:23:52;23.90;;;19.50;;
57319;SDS011;43158;51.026;18.190;2023-03-04T07:26:18;23.00;;;19.90;;
57319;SDS011;43158;51.026;18.190;2023-03-04T07:28:44;23.20;;;19.60;;
57319;SDS011;43158;51.026;18.190;2023-03-04T07:34:09;28.40;;;17.70;;
57319;SDS011;43158;51.026;18.190;2023-03-04T07:36:36;26.70;;;19.30;;
57319;SDS011;43158;51.026;18.190;2023-03-04T07:39:03;27.60;;;18.30;;
57319;SDS011;43158;51.026;18.190;2023-03-04T07:41:29;22.40;;;18.60;;
57319;SDS011;43158;51.026;18.190;2023-03-04T07:43:56;24.40;;;18.30;;
57319;SDS011;43158;51.026;18.190;2023-03-04T07:46:22;24.10;;;18.20;;
57319;SDS011;43158;51.026;18.190;2023-03-04T07:48:48;21.90;;;18.70;;
57319;SDS011;43158;51.026;18.190;2023-03-04T07:51:17;25.90;;;19.50;;
57319;SDS011;43158;51.026;18.190;2023-03-04T07:53:44;23.20;;;18.40;;
57319;SDS011;43158;51.026;18.190;2023-03-04T07:56:11;26.50;;;18.50;;
57319;SDS011;43158;51.026;18.190;2023-03-04T07:58:37;24.00;;;18.00;;
57319;SDS011;43158;51.026;18.190;2023-03-04T08:01:09;19.70;;;16.40;;
57319;SDS011;43158;51.026;18.190;2023-03-04T08:03:35;20.50;;;17.60;;
57319;SDS011;43158;51.026;18.190;2023-03-04T08:06:03;22.00;;;17.40;;
57319;SDS011;43158;51.026;18.190;2023-03-04T08:08:29;21.80;;;16.80;;
57319;SDS011;43158;51.026;18.190;2023-03-04T08:10:55;21.90;;;16.70;;
57319;SDS011;43158;51.026;18.190;2023-03-04T08:13:21;24.10;;;17.20;;
57319;SDS011;43158;51.026;18.190;2023-03-04T08:15:46;22.90;;;18.00;;
57319;SDS011;43158;51.026;18.190;2023-03-04T08:18:12;23.40;;;17.30;;
57319;SDS011;43158;51.026;18.190;2023-03-04T08:20:40;17.40;;;15.60;;
57319;SDS011;43158;51.026;18.190;2023-03-04T08:23:06;21.30;;;16.40;;
57319;SDS011;43158;51.026;18.190;2023-03-04T08:25:31;20.00;;;15.80;;
57319;SDS011;43158;51.026;18.190;2023-03-04T08:27:57;22.30;;;17.70;;
57319;SDS011;43158;51.026;18.190;2023-03-04T08:30:23;19.40;;;15.50;;
57319;SDS011;43158;51.026;18.190;2023-03-04T08:32:49;22.80;;;15.70;;
57319;SDS011;43158;51.026;18.190;2023-03-04T08:35:15;23.40;;;16.40;;
57319;SDS011;43158;51.026;18.190;2023-03-04T08:37:41;21.50;;;15.20;;
57319;SDS011;43158;51.026;18.190;2023-03-04T08:40:07;19.70;;;15.00;;
57319;SDS011;43158;51.026;18.190;2023-03-04T08:42:33;23.20;;;16.50;;
57319;SDS011;43158;51.026;18.190;2023-03-04T08:44:58;20.30;;;15.40;;
57319;SDS011;43158;51.026;18.190;2023-03-04T08:47:24;17.90;;;14.40;;
57319;SDS011;43158;51.026;18.190;2023-03-04T08:49:50;19.90;;;14.00;;
57319;SDS011;43158;51.026;18.190;2023-03-04T08:52:16;21.10;;;13.70;;
57319;SDS011;43158;51.026;18.190;2023-03-04T08:54:42;21.50;;;15.10;;
57319;SDS011;43158;51.026;18.190;2023-03-04T08:57:07;19.40;;;14.30;;
57319;SDS011;43158;51.026;18.190;2023-03-04T08:59:33;20.70;;;13.80;;
57319;SDS011;43158;51.026;18.190;2023-03-04T09:01:59;15.70;;;13.50;;
57319;SDS011;43158;51.026;18.190;2023-03-04T09:04:25;18.50;;;13.90;;
57319;SDS011;43158;51.026;18.190;2023-03-04T09:06:51;16.80;;;13.40;;
57319;SDS011;43158;51.026;18.190;2023-03-04T09:09:17;16.10;;;12.70;;
57319;SDS011;43158;51.026;18.190;2023-03-04T09:11:43;15.40;;;11.90;;
57319;SDS011;43158;51.026;18.190;2023-03-04T09:14:09;15.50;;;12.30;;
57319;SDS011;43158;51.026;18.190;2023-03-04T09:16:35;13.80;;;11.80;;
57319;SDS011;43158;51.026;18.190;2023-03-04T09:19:01;17.00;;;12.30;;
57319;SDS011;43158;51.026;18.190;2023-03-04T09:21:27;22.10;;;13.60;;
57319;SDS011;43158;51.026;18.190;2023-03-04T09:23:53;20.70;;;14.80;;
57319;SDS011;43158;51.026;18.190;2023-03-04T09:26:23;15.10;;;12.60;;
57319;SDS011;43158;51.026;18.190;2023-03-04T09:28:50;16.40;;;11.90;;
57319;SDS011;43158;51.026;18.190;2023-03-04T09:31:16;16.50;;;11.30;;
57319;SDS011;43158;51.026;18.190;2023-03-04T09:33:42;13.60;;;11.40;;
57319;SDS011;43158;51.026;18.190;2023-03-04T09:36:09;14.70;;;12.80;;
57319;SDS011;43158;51.026;18.190;2023-03-04T09:38:35;17.50;;;12.30;;
57319;SDS011;43158;51.026;18.190;2023-03-04T09:41:05;14.60;;;11.80;;
57319;SDS011;43158;51.026;18.190;2023-03-04T09:43:32;15.20;;;10.70;;
57319;SDS011;43158;51.026;18.190;2023-03-04T09:46:02;17.10;;;12.70;;
57319;SDS011;43158;51.026;18.190;2023-03-04T09:48:32;13.10;;;11.30;;
57319;SDS011;43158;51.026;18.190;2023-03-04T09:53:58;17.60;;;13.20;;
57319;SDS011;43158;51.026;18.190;2023-03-04T09:56:26;18.60;;;13.30;;
57319;SDS011;43158;51.026;18.190;2023-03-04T09:59:08;15.50;;;13.50;;
57319;SDS011;43158;51.026;18.190;2023-03-04T10:01:57;15.70;;;11.60;;
57319;SDS011;43158;51.026;18.190;2023-03-04T10:06:51;17.50;;;13.10;;
57319;SDS011;43158;51.026;18.190;2023-03-04T10:09:22;20.50;;;13.00;;
57319;SDS011;43158;51.026;18.190;2023-03-04T10:11:54;17.30;;;12.70;;
57319;SDS011;43158;51.026;18.190;2023-03-04T10:14:37;18.30;;;13.80;;
57319;SDS011;43158;51.026;18.190;2023-03-04T10:19:33;21.20;;;15.20;;
57319;SDS011;43158;51.026;18.190;2023-03-04T10:22:00;21.10;;;15.70;;
57319;SDS011;43158;51.026;18.190;2023-03-04T10:24:27;16.70;;;14.80;;
57319;SDS011;43158;51.026;18.190;2023-03-04T10:26:55;17.00;;;15.20;;
57319;SDS011;43158;51.026;18.190;2023-03-04T10:29:23;18.70;;;16.00;;
57319;SDS011;43158;51.026;18.190;2023-03-04T10:31:49;18.90;;;16.90;;
57319;SDS011;43158;51.026;18.190;2023-03-04T10:34:15;23.70;;;16.10;;
57319;SDS011;43158;51.026;18.190;2023-03-04T10:39:26;21.70;;;16.20;;
57319;SDS011;43158;51.026;18.190;2023-03-04T10:44:37;23.60;;;17.50;;
57319;SDS011;43158;51.026;18.190;2023-03-04T10:47:08;24.30;;;16.20;;
57319;SDS011;43158;51.026;18.190;2023-03-04T10:49:36;20.60;;;16.20;;
57319;SDS011;43158;51.026;18.190;2023-03-04T10:54:52;19.80;;;16.90;;
57319;SDS011;43158;51.026;18.190;2023-03-04T10:57:19;19.10;;;16.30;;
57319;SDS011;43158;51.026;18.190;2023-03-04T10:59:49;18.60;;;15.50;;
57319;SDS011;43158;51.026;18.190;2023-03-04T11:02:20;18.60;;;15.00;;
57319;SDS011;43158;51.026;18.190;2023-03-04T11:04:55;16.40;;;14.40;;
57319;SDS011;43158;51.026;18.190;2023-03-04T11:07:24;17.70;;;13.30;;
57319;SDS011;43158;51.026;18.190;2023-03-04T11:09:50;15.30;;;13.80;;
57319;SDS011;43158;51.026;18.190;2023-03-04T11:12:18;15.70;;;12.90;;
57319;SDS011;43158;51.026;18.190;2023-03-04T11:14:45;17.00;;;14.30;;
57319;SDS011;43158;51.026;18.190;2023-03-04T11:19:53;18.90;;;12.90;;
57319;SDS011;43158;51.026;18.190;2023-03-04T11:22:21;15.50;;;12.10;;
57319;SDS011;43158;51.026;18.190;2023-03-04T11:24:55;17.40;;;12.00;;
57319;SDS011;43158;51.026;18.190;2023-03-04T11:27:56;14.30;;;12.30;;
57319;SDS011;43158;51.026;18.190;2023-03-04T11:30:17;14.60;;;12.70;;
57319;SDS011;43158;51.026;18.190;2023-03-04T11:32:45;16.20;;;12.50;;
57319;SDS011;43158;51.026;18.190;2023-03-04T11:35:15;14.70;;;11.40;;
57319;SDS011;43158;51.026;18.190;2023-03-04T11:40:12;15.40;;;11.20;;
57319;SDS011;43158;51.026;18.190;2023-03-04T11:42:52;12.00;;;9.50;;
57319;SDS011;43158;51.026;18.190;2023-03-04T11:45:27;17.80;;;11.20;;
57319;SDS011;43158;51.026;18.190;2023-03-04T11:47:59;10.50;;;9.30;;
57319;SDS011;43158;51.026;18.190;2023-03-04T11:53:08;11.50;;;10.50;;
57319;SDS011;43158;51.026;18.190;2023-03-04T11:55:46;11.90;;;9.70;;
57319;SDS011;43158;51.026;18.190;2023-03-04T12:01:06;11.40;;;9.30;;
57319;SDS011;43158;51.026;18.190;2023-03-04T12:03:44;11.70;;;9.40;;
57319;SDS011;43158;51.026;18.190;2023-03-04T12:06:31;14.60;;;10.10;;
57319;SDS011;43158;51.026;18.190;2023-03-04T12:26:41;15.00;;;10.30;;
57319;SDS011;43158;51.026;18.190;2023-03-04T12:39:31;10.00;;;8.90;;
57319;SDS011;43158;51.026;18.190;2023-03-04T12:42:18;13.80;;;8.20;;
57319;SDS011;43158;51.026;18.190;2023-03-04T12:54:49;10.20;;;7.90;;
57319;SDS011;43158;51.026;18.190;2023-03-04T12:57:17;8.60;;;6.80;;
57319;SDS011;43158;51.026;18.190;2023-03-04T13:02:34;11.00;;;9.40;;
57319;SDS011;43158;51.026;18.190;2023-03-04T13:07:47;9.80;;;8.80;;
57319;SDS011;43158;51.026;18.190;2023-03-04T13:10:16;12.20;;;8.30;;
57319;SDS011;43158;51.026;18.190;2023-03-04T13:12:45;9.50;;;8.60;;
57319;SDS011;43158;51.026;18.190;2023-03-04T13:17:56;9.30;;;7.90;;
57319;SDS011;43158;51.026;18.190;2023-03-04T13:22:55;9.70;;;7.70;;
57319;SDS011;43158;51.026;18.190;2023-03-04T13:46:14;12.50;;;9.20;;
57319;SDS011;43158;51.026;18.190;2023-03-04T13:51:21;8.70;;;7.80;;
57319;SDS011;43158;51.026;18.190;2023-03-04T13:56:24;8.70;;;7.70;;
57319;SDS011;43158;51.026;18.190;2023-03-04T13:58:52;9.50;;;8.40;;
57319;SDS011;43158;51.026;18.190;2023-03-04T14:01:29;8.90;;;7.90;;
57319;SDS011;43158;51.026;18.190;2023-03-04T14:03:57;9.30;;;7.90;;
57319;SDS011;43158;51.026;18.190;2023-03-04T14:06:24;11.00;;;8.10;;
57319;SDS011;43158;51.026;18.190;2023-03-04T14:08:50;10.70;;;8.00;;
57319;SDS011;43158;51.026;18.190;2023-03-04T14:11:25;8.00;;;7.20;;
57319;SDS011;43158;51.026;18.190;2023-03-04T14:13:51;9.60;;;8.50;;
57319;SDS011;43158;51.026;18.190;2023-03-04T14:16:18;11.10;;;9.50;;
57319;SDS011;43158;51.026;18.190;2023-03-04T14:18:46;10.20;;;7.70;;
57319;SDS011;43158;51.026;18.190;2023-03-04T14:21:20;9.00;;;7.90;;
57319;SDS011;43158;51.026;18.190;2023-03-04T14:23:46;8.80;;;7.90;;
57319;SDS011;43158;51.026;18.190;2023-03-04T14:26:23;10.00;;;8.00;;
57319;SDS011;43158;51.026;18.190;2023-03-04T14:28:50;9.90;;;7.80;;
57319;SDS011;43158;51.026;18.190;2023-03-04T14:31:17;10.90;;;7.70;;
57319;SDS011;43158;51.026;18.190;2023-03-04T14:33:44;11.10;;;8.70;;
57319;SDS011;43158;51.026;18.190;2023-03-04T14:36:15;9.80;;;7.70;;
57319;SDS011;43158;51.026;18.190;2023-03-04T14:38:42;11.00;;;8.00;;
57319;SDS011;43158;51.026;18.190;2023-03-04T14:41:10;9.90;;;7.10;;
57319;SDS011;43158;51.026;18.190;2023-03-04T14:43:42;8.60;;;7.30;;
57319;SDS011;43158;51.026;18.190;2023-03-04T14:46:12;9.00;;;7.10;;
57319;SDS011;43158;51.026;18.190;2023-03-04T14:48:40;8.30;;;7.50;;
57319;SDS011;43158;51.026;18.190;2023-03-04T14:53:54;8.00;;;7.00;;
57319;SDS011;43158;51.026;18.190;2023-03-04T14:56:27;8.70;;;7.60;;
57319;SDS011;43158;51.026;18.190;2023-03-04T14:58:54;9.20;;;8.00;;
57319;SDS011;43158;51.026;18.190;2023-03-04T15:01:22;8.40;;;7.60;;
57319;SDS011;43158;51.026;18.190;2023-03-04T15:03:59;9.70;;;6.60;;
57319;SDS011;43158;51.026;18.190;2023-03-04T15:06:26;10.10;;;8.30;;
57319;SDS011;43158;51.026;18.190;2023-03-04T15:08:59;9.80;;;7.80;;
57319;SDS011;43158;51.026;18.190;2023-03-04T15:11:27;8.70;;;7.20;;
57319;SDS011;43158;51.026;18.190;2023-03-04T15:13:54;7.00;;;5.70;;
57319;SDS011;43158;51.026;18.190;2023-03-04T15:16:22;8.90;;;8.00;;
57319;SDS011;43158;51.026;18.190;2023-03-04T15:21:28;7.60;;;6.60;;
57319;SDS011;43158;51.026;18.190;2023-03-04T15:23:55;7.60;;;6.50;;
57319;SDS011;43158;51.026;18.190;2023-03-04T15:26:21;8.00;;;7.20;;
57319;SDS011;43158;51.026;18.190;2023-03-04T15:28:47;9.10;;;6.80;;
57319;SDS011;43158;51.026;18.190;2023-03-04T15:31:16;8.90;;;8.00;;
57319;SDS011;43158;51.026;18.190;2023-03-04T15:33:43;9.70;;;7.90;;
57319;SDS011;43158;51.026;18.190;2023-03-04T15:36:13;9.40;;;7.80;;
57319;SDS011;43158;51.026;18.190;2023-03-04T15:38:40;8.80;;;7.60;;
57319;SDS011;43158;51.026;18.190;2023-03-04T15:41:10;9.00;;;8.10;;
57319;SDS011;43158;51.026;18.190;2023-03-04T15:43:36;8.60;;;7.30;;
57319;SDS011;43158;51.026;18.190;2023-03-04T15:46:02;11.20;;;7.80;;
57319;SDS011;43158;51.026;18.190;2023-03-04T15:48:28;8.80;;;7.10;;
57319;SDS011;43158;51.026;18.190;2023-03-04T15:50:55;7.30;;;6.50;;
57319;SDS011;43158;51.026;18.190;2023-03-04T15:53:40;7.90;;;6.70;;
57319;SDS011;43158;51.026;18.190;2023-03-04T15:56:07;8.70;;;6.70;;
57319;SDS011;43158;51.026;18.190;2023-03-04T15:58:35;7.20;;;6.10;;
57319;SDS011;43158;51.026;18.190;2023-03-04T16:01:01;6.80;;;6.10;;
57319;SDS011;43158;51.026;18.190;2023-03-04T16:03:27;8.20;;;7.00;;
57319;SDS011;43158;51.026;18.190;2023-03-04T16:05:53;7.00;;;6.20;;
57319;SDS011;43158;51.026;18.190;2023-03-04T16:08:19;9.00;;;6.50;;
57319;SDS011;43158;51.026;18.190;2023-03-04T16:10:46;6.70;;;5.90;;